sensor_id;sensor_type;location;lat;lon;timestamp;P1;durP1;ratioP1;P2;durP2;ratioP2
73104;SDS011;61296;50.526;30.792;2023-08-24T00:01:59;3.85;;;1.98;;
73104;SDS011;61296;50.526;30.792;2023-08-24T00:17:18;5.88;;;2.70;;
73104;SDS011;61296;50.526;30.792;2023-08-24T00:32:38;3.72;;;2.15;;
73104;SDS011;61296;50.526;30.792;2023-08-24T00:47:56;3.40;;;2.10;;
73104;SDS011;61296;50.526;30.792;2023-08-24T01:03:15;2.45;;;1.70;;
73104;SDS011;61296;50.526;30.792;2023-08-24T01:18:37;2.85;;;1.75;;
73104;SDS011;61296;50.526;30.792;2023-08-24T01:33:57;4.65;;;2.40;;
73104;SDS011;61296;50.526;30.792;2023-08-24T01:49:17;4.10;;;2.30;;
73104;SDS011;61296;50.526;30.792;2023-08-24T02:04:37;2.90;;;2.15;;
73104;SDS011;61296;50.526;30.792;2023-08-24T02:19:56;3.47;;;1.90;;
73104;SDS011;61296;50.526;30.792;2023-08-24T02:35:14;2.65;;;1.85;;
73104;SDS011;61296;50.526;30.792;2023-08-24T02:50:35;4.15;;;2.92;;
73104;SDS011;61296;50.526;30.792;2023-08-24T03:05:54;6.50;;;4.05;;
73104;SDS011;61296;50.526;30.792;2023-08-24T03:21:14;5.55;;;4.03;;
73104;SDS011;61296;50.526;30.792;2023-08-24T03:36:33;6.10;;;3.80;;
73104;SDS011;61296;50.526;30.792;2023-08-24T03:51:52;8.05;;;3.20;;
73104;SDS011;61296;50.526;30.792;2023-08-24T04:07:11;13.77;;;6.05;;
73104;SDS011;61296;50.526;30.792;2023-08-24T04:22:30;9.50;;;5.82;;
73104;SDS011;61296;50.526;30.792;2023-08-24T04:37:49;27.35;;;9.38;;
73104;SDS011;61296;50.526;30.792;2023-08-24T04:53:08;25.98;;;9.93;;
73104;SDS011;61296;50.526;30.792;2023-08-24T05:08:27;22.10;;;6.72;;
73104;SDS011;61296;50.526;30.792;2023-08-24T05:23:46;10.88;;;6.38;;
73104;SDS011;61296;50.526;30.792;2023-08-24T05:39:05;5.88;;;3.60;;
73104;SDS011;61296;50.526;30.792;2023-08-24T05:54:24;3.50;;;1.80;;
73104;SDS011;61296;50.526;30.792;2023-08-24T06:09:43;9.15;;;1.83;;
73104;SDS011;61296;50.526;30.792;2023-08-24T06:25:02;12.75;;;2.60;;
73104;SDS011;61296;50.526;30.792;2023-08-24T06:40:21;5.40;;;1.95;;
73104;SDS011;61296;50.526;30.792;2023-08-24T06:55:41;7.85;;;1.60;;
73104;SDS011;61296;50.526;30.792;2023-08-24T07:11:01;5.50;;;1.70;;
73104;SDS011;61296;50.526;30.792;2023-08-24T07:26:20;3.25;;;1.42;;
73104;SDS011;61296;50.526;30.792;2023-08-24T07:41:39;4.55;;;2.10;;
73104;SDS011;61296;50.526;30.792;2023-08-24T07:56:58;6.15;;;1.80;;
73104;SDS011;61296;50.526;30.792;2023-08-24T08:12:17;6.65;;;2.30;;
73104;SDS011;61296;50.526;30.792;2023-08-24T08:27:36;5.25;;;1.80;;
73104;SDS011;61296;50.526;30.792;2023-08-24T08:42:58;8.52;;;2.08;;
73104;SDS011;61296;50.526;30.792;2023-08-24T08:58:17;3.55;;;1.45;;
73104;SDS011;61296;50.526;30.792;2023-08-24T09:13:38;2.92;;;1.88;;
73104;SDS011;61296;50.526;30.792;2023-08-24T09:28:57;8.05;;;2.50;;
73104;SDS011;61296;50.526;30.792;2023-08-24T09:44:18;3.40;;;1.73;;
73104;SDS011;61296;50.526;30.792;2023-08-24T09:59:39;10.55;;;1.80;;
73104;SDS011;61296;50.526;30.792;2023-08-24T10:15:02;3.60;;;1.97;;
73104;SDS011;61296;50.526;30.792;2023-08-24T11:01:19;3.08;;;1.60;;
73104;SDS011;61296;50.526;30.792;2023-08-24T11:16:43;6.80;;;3.07;;
73104;SDS011;61296;50.526;30.792;2023-08-24T11:32:03;8.70;;;2.40;;
73104;SDS011;61296;50.526;30.792;2023-08-24T11:47:22;2.25;;;1.35;;
73104;SDS011;61296;50.526;30.792;2023-08-24T12:02:42;2.60;;;1.40;;
73104;SDS011;61296;50.526;30.792;2023-08-24T12:33:31;7.40;;;2.10;;
73104;SDS011;61296;50.526;30.792;2023-08-24T12:48:51;7.82;;;2.17;;
73104;SDS011;61296;50.526;30.792;2023-08-24T13:04:10;4.53;;;2.00;;
73104;SDS011;61296;50.526;30.792;2023-08-24T13:19:28;6.53;;;1.80;;
73104;SDS011;61296;50.526;30.792;2023-08-24T13:34:47;6.90;;;2.05;;
73104;SDS011;61296;50.526;30.792;2023-08-24T13:50:06;9.45;;;2.30;;
73104;SDS011;61296;50.526;30.792;2023-08-24T14:05:26;6.70;;;2.00;;
73104;SDS011;61296;50.526;30.792;2023-08-24T14:20:45;2.65;;;1.92;;
73104;SDS011;61296;50.526;30.792;2023-08-24T14:36:04;13.85;;;2.58;;
73104;SDS011;61296;50.526;30.792;2023-08-24T14:51:24;4.68;;;1.95;;
73104;SDS011;61296;50.526;30.792;2023-08-24T15:06:43;4.15;;;2.50;;
73104;SDS011;61296;50.526;30.792;2023-08-24T15:22:02;6.60;;;2.40;;
73104;SDS011;61296;50.526;30.792;2023-08-24T15:37:20;4.18;;;1.65;;
73104;SDS011;61296;50.526;30.792;2023-08-24T15:52:39;12.90;;;2.80;;
73104;SDS011;61296;50.526;30.792;2023-08-24T16:07:58;10.60;;;4.03;;
73104;SDS011;61296;50.526;30.792;2023-08-24T16:23:17;11.82;;;3.78;;
73104;SDS011;61296;50.526;30.792;2023-08-24T16:38:38;4.57;;;2.78;;
73104;SDS011;61296;50.526;30.792;2023-08-24T16:53:57;4.95;;;2.85;;
73104;SDS011;61296;50.526;30.792;2023-08-24T17:09:18;4.53;;;2.35;;
73104;SDS011;61296;50.526;30.792;2023-08-24T17:24:37;3.50;;;2.47;;
73104;SDS011;61296;50.526;30.792;2023-08-24T17:39:57;3.70;;;2.20;;
73104;SDS011;61296;50.526;30.792;2023-08-24T17:55:16;3.17;;;2.20;;
73104;SDS011;61296;50.526;30.792;2023-08-24T18:10:35;2.00;;;1.80;;
73104;SDS011;61296;50.526;30.792;2023-08-24T18:25:55;6.45;;;3.20;;
73104;SDS011;61296;50.526;30.792;2023-08-24T18:41:13;6.97;;;3.47;;
73104;SDS011;61296;50.526;30.792;2023-08-24T18:56:32;5.38;;;3.67;;
73104;SDS011;61296;50.526;30.792;2023-08-24T19:11:51;5.88;;;4.15;;
73104;SDS011;61296;50.526;30.792;2023-08-24T19:27:10;4.90;;;2.97;;
73104;SDS011;61296;50.526;30.792;2023-08-24T19:42:30;8.07;;;5.15;;
73104;SDS011;61296;50.526;30.792;2023-08-24T19:57:50;11.05;;;6.50;;
73104;SDS011;61296;50.526;30.792;2023-08-24T20:13:09;7.32;;;3.92;;
73104;SDS011;61296;50.526;30.792;2023-08-24T20:28:28;7.13;;;3.60;;
73104;SDS011;61296;50.526;30.792;2023-08-24T20:43:49;5.72;;;3.55;;
73104;SDS011;61296;50.526;30.792;2023-08-24T20:59:08;15.55;;;7.68;;
73104;SDS011;61296;50.526;30.792;2023-08-24T21:14:27;12.23;;;5.45;;
73104;SDS011;61296;50.526;30.792;2023-08-24T21:29:46;5.35;;;3.28;;
73104;SDS011;61296;50.526;30.792;2023-08-24T21:45:08;5.57;;;2.80;;
73104;SDS011;61296;50.526;30.792;2023-08-24T22:00:27;6.03;;;3.50;;
73104;SDS011;61296;50.526;30.792;2023-08-24T22:15:50;7.18;;;4.43;;
73104;SDS011;61296;50.526;30.792;2023-08-24T22:31:10;8.85;;;4.15;;
73104;SDS011;61296;50.526;30.792;2023-08-24T22:46:29;10.35;;;5.90;;
73104;SDS011;61296;50.526;30.792;2023-08-24T23:01:48;11.52;;;6.57;;
73104;SDS011;61296;50.526;30.792;2023-08-24T23:17:07;17.80;;;8.48;;
73104;SDS011;61296;50.526;30.792;2023-08-24T23:32:26;19.08;;;9.38;;
73104;SDS011;61296;50.526;30.792;2023-08-24T23:47:47;10.10;;;5.72;;
